< < Back
Terminal Aerodrome Forecast


Current Version              Previous Versions:   1  2  3  4  5  6  7  8  9  

Terminal Aerodrome Forecast

632
FTUS42 KFFC 302300 RRA
TAFMCN
TAF
KMCN 302341Z 3100/3124 02004KT P6SM SKC
     FM310300 08003KT P6SM SCT250
     FM311600 10004KT P6SM SCT040 SCT250
     FM311800 08005KT P6SM BKN050=

Latest METAR

279
SAUS80 KWBC 310300 RRA
MTRMCN
METAR KMCN 310253Z AUTO 00000KT 10SM CLR 20/19 A3001 RMK AO2 SLP159
T02000194 53008 TSNO


USA.gov is the U.S. government's official web portal to all federal, state and local government web resources and services.